sensor_id;sensor_type;location;lat;lon;timestamp;pressure;altitude;pressure_sealevel;temperature;humidity
23241;BME280;11789;53.482;9.862;2024-02-04T00:01:39;101850.69;;;5.33;100.00
23241;BME280;11789;53.482;9.862;2024-02-04T00:04:04;101847.16;;;5.30;100.00
23241;BME280;11789;53.482;9.862;2024-02-04T00:06:30;101836.87;;;5.30;100.00
23241;BME280;11789;53.482;9.862;2024-02-04T00:08:55;101830.84;;;5.28;100.00
23241;BME280;11789;53.482;9.862;2024-02-04T00:11:21;101823.91;;;5.25;100.00
23241;BME280;11789;53.482;9.862;2024-02-04T00:13:46;101816.16;;;5.24;100.00
23241;BME280;11789;53.482;9.862;2024-02-04T00:16:12;101822.16;;;5.24;100.00
23241;BME280;11789;53.482;9.862;2024-02-04T00:18:37;101828.97;;;5.24;100.00
23241;BME280;11789;53.482;9.862;2024-02-04T00:21:03;101832.41;;;5.24;100.00
23241;BME280;11789;53.482;9.862;2024-02-04T00:23:28;101827.16;;;5.21;100.00
23241;BME280;11789;53.482;9.862;2024-02-04T00:25:54;101837.41;;;5.21;100.00
23241;BME280;11789;53.482;9.862;2024-02-04T00:28:20;101837.31;;;5.18;100.00
23241;BME280;11789;53.482;9.862;2024-02-04T00:30:46;101837.31;;;5.18;100.00
23241;BME280;11789;53.482;9.862;2024-02-04T00:33:11;101850.94;;;5.17;100.00
23241;BME280;11789;53.482;9.862;2024-02-04T00:35:37;101857.75;;;5.16;100.00
23241;BME280;11789;53.482;9.862;2024-02-04T00:38:02;101860.28;;;5.15;100.00
23241;BME280;11789;53.482;9.862;2024-02-04T00:40:28;101839.75;;;5.15;100.00
23241;BME280;11789;53.482;9.862;2024-02-04T00:42:54;101843.97;;;5.13;100.00
23241;BME280;11789;53.482;9.862;2024-02-04T00:45:19;101835.34;;;5.11;100.00
23241;BME280;11789;53.482;9.862;2024-02-04T00:47:44;101823.28;;;5.08;100.00
23241;BME280;11789;53.482;9.862;2024-02-04T00:50:10;101824.13;;;5.07;100.00
23241;BME280;11789;53.482;9.862;2024-02-04T00:52:35;101816.44;;;5.07;100.00
23241;BME280;11789;53.482;9.862;2024-02-04T00:55:01;101812.09;;;5.06;100.00
23241;BME280;11789;53.482;9.862;2024-02-04T00:57:26;101805.34;;;5.08;100.00
23241;BME280;11789;53.482;9.862;2024-02-04T00:59:52;101795.03;;;5.07;100.00
23241;BME280;11789;53.482;9.862;2024-02-04T01:02:18;101799.34;;;5.08;100.00
23241;BME280;11789;53.482;9.862;2024-02-04T01:04:43;101790.03;;;5.10;100.00
23241;BME280;11789;53.482;9.862;2024-02-04T01:07:09;101793.41;;;5.09;100.00
23241;BME280;11789;53.482;9.862;2024-02-04T01:09:34;101802.09;;;5.12;100.00
23241;BME280;11789;53.482;9.862;2024-02-04T01:12:00;101796.19;;;5.15;100.00
23241;BME280;11789;53.482;9.862;2024-02-04T01:14:25;101789.41;;;5.17;100.00
23241;BME280;11789;53.482;9.862;2024-02-04T01:16:50;101792.87;;;5.17;100.00
23241;BME280;11789;53.482;9.862;2024-02-04T01:19:16;101791.94;;;5.15;100.00
23241;BME280;11789;53.482;9.862;2024-02-04T01:21:41;101804.91;;;5.20;100.00
23241;BME280;11789;53.482;9.862;2024-02-04T01:24:07;101797.22;;;5.20;100.00
23241;BME280;11789;53.482;9.862;2024-02-04T01:26:32;101796.53;;;5.24;100.00
23241;BME280;11789;53.482;9.862;2024-02-04T01:28:58;101792.25;;;5.25;100.00
23241;BME280;11789;53.482;9.862;2024-02-04T01:31:23;101791.53;;;5.27;100.00
23241;BME280;11789;53.482;9.862;2024-02-04T01:33:49;101790.78;;;5.31;100.00
23241;BME280;11789;53.482;9.862;2024-02-04T01:36:14;101792.59;;;5.34;100.00
23241;BME280;11789;53.482;9.862;2024-02-04T01:38:40;101790.91;;;5.34;100.00
23241;BME280;11789;53.482;9.862;2024-02-04T01:41:05;101793.59;;;5.37;100.00
23241;BME280;11789;53.482;9.862;2024-02-04T01:43:30;101793.69;;;5.40;100.00
23241;BME280;11789;53.482;9.862;2024-02-04T01:45:56;101785.16;;;5.41;100.00
23241;BME280;11789;53.482;9.862;2024-02-04T01:48:22;101788.56;;;5.40;100.00
23241;BME280;11789;53.482;9.862;2024-02-04T01:50:50;101785.16;;;5.41;100.00
23241;BME280;11789;53.482;9.862;2024-02-04T01:53:17;101781.84;;;5.44;100.00
23241;BME280;11789;53.482;9.862;2024-02-04T01:55:44;101787.84;;;5.44;100.00
23241;BME280;11789;53.482;9.862;2024-02-04T01:58:10;101793.00;;;5.46;100.00
23241;BME280;11789;53.482;9.862;2024-02-04T02:00:36;101787.19;;;5.50;100.00
23241;BME280;11789;53.482;9.862;2024-02-04T02:03:01;101793.13;;;5.49;100.00
23241;BME280;11789;53.482;9.862;2024-02-04T02:05:30;101788.06;;;5.51;100.00
23241;BME280;11789;53.482;9.862;2024-02-04T02:07:56;101794.12;;;5.53;100.00
23241;BME280;11789;53.482;9.862;2024-02-04T02:10:21;101785.66;;;5.55;100.00
23241;BME280;11789;53.482;9.862;2024-02-04T02:13:11;101777.94;;;5.55;100.00
23241;BME280;11789;53.482;9.862;2024-02-04T02:15:47;101778.94;;;5.59;100.00
23241;BME280;11789;53.482;9.862;2024-02-04T02:18:17;101778.16;;;5.61;100.00
23241;BME280;11789;53.482;9.862;2024-02-04T02:23:31;101777.28;;;5.61;100.00
23241;BME280;11789;53.482;9.862;2024-02-04T02:26:00;101777.28;;;5.61;100.00
23241;BME280;11789;53.482;9.862;2024-02-04T02:28:25;101778.16;;;5.61;100.00
23241;BME280;11789;53.482;9.862;2024-02-04T02:30:51;101778.12;;;5.60;100.00
23241;BME280;11789;53.482;9.862;2024-02-04T02:33:17;101770.28;;;5.57;100.00
23241;BME280;11789;53.482;9.862;2024-02-04T02:35:43;101773.69;;;5.56;100.00
23241;BME280;11789;53.482;9.862;2024-02-04T02:40:47;101769.09;;;5.47;100.00
23241;BME280;11789;53.482;9.862;2024-02-04T02:43:14;101766.50;;;5.45;100.00
23241;BME280;11789;53.482;9.862;2024-02-04T02:45:44;101762.09;;;5.41;100.00
23241;BME280;11789;53.482;9.862;2024-02-04T02:48:10;101761.91;;;5.37;100.00
23241;BME280;11789;53.482;9.862;2024-02-04T02:50:37;101755.06;;;5.36;100.00
23241;BME280;11789;53.482;9.862;2024-02-04T02:53:03;101754.97;;;5.33;100.00
23241;BME280;11789;53.482;9.862;2024-02-04T02:55:28;101753.16;;;5.30;100.00
23241;BME280;11789;53.482;9.862;2024-02-04T02:57:54;101760.00;;;5.31;100.00
23241;BME280;11789;53.482;9.862;2024-02-04T03:00:20;101754.72;;;5.27;100.00
23241;BME280;11789;53.482;9.862;2024-02-04T03:02:45;101753.00;;;5.26;100.00
23241;BME280;11789;53.482;9.862;2024-02-04T03:05:12;101747.78;;;5.23;100.00
23241;BME280;11789;53.482;9.862;2024-02-04T03:07:37;101745.13;;;5.21;100.00
23241;BME280;11789;53.482;9.862;2024-02-04T03:10:03;101741.66;;;5.19;100.00
23241;BME280;11789;53.482;9.862;2024-02-04T03:12:28;101745.84;;;5.17;100.00
23241;BME280;11789;53.482;9.862;2024-02-04T03:14:54;101744.09;;;5.16;100.00
23241;BME280;11789;53.482;9.862;2024-02-04T03:17:19;101731.28;;;5.16;100.00
23241;BME280;11789;53.482;9.862;2024-02-04T03:19:47;101731.28;;;5.16;100.00
23241;BME280;11789;53.482;9.862;2024-02-04T03:22:13;101730.41;;;5.15;100.00
23241;BME280;11789;53.482;9.862;2024-02-04T03:24:38;101734.66;;;5.15;100.00
23241;BME280;11789;53.482;9.862;2024-02-04T03:27:04;101732.06;;;5.13;100.00
23241;BME280;11789;53.482;9.862;2024-02-04T03:29:29;101727.81;;;5.14;100.00
23241;BME280;11789;53.482;9.862;2024-02-04T03:31:57;101729.41;;;5.12;100.00
23241;BME280;11789;53.482;9.862;2024-02-04T03:34:23;101717.34;;;5.08;100.00
23241;BME280;11789;53.482;9.862;2024-02-04T03:36:48;101711.44;;;5.10;100.00
23241;BME280;11789;53.482;9.862;2024-02-04T03:39:14;101717.44;;;5.11;100.00
23241;BME280;11789;53.482;9.862;2024-02-04T03:41:39;101728.50;;;5.10;100.00
23241;BME280;11789;53.482;9.862;2024-02-04T03:44:05;101720.69;;;5.07;100.00
23241;BME280;11789;53.482;9.862;2024-02-04T03:46:30;101720.66;;;5.05;100.00
23241;BME280;11789;53.482;9.862;2024-02-04T03:48:56;101714.63;;;5.03;100.00
23241;BME280;11789;53.482;9.862;2024-02-04T03:51:22;101718.13;;;5.07;100.00
23241;BME280;11789;53.482;9.862;2024-02-04T03:53:48;101709.50;;;5.03;100.00
23241;BME280;11789;53.482;9.862;2024-02-04T03:56:14;101711.97;;;5.02;100.00
23241;BME280;11789;53.482;9.862;2024-02-04T03:58:39;101707.59;;;4.98;100.00
23241;BME280;11789;53.482;9.862;2024-02-04T04:01:05;101711.06;;;5.00;100.00
23241;BME280;11789;53.482;9.862;2024-02-04T04:03:30;101700.81;;;5.00;100.00
23241;BME280;11789;53.482;9.862;2024-02-04T04:05:56;101703.25;;;4.97;100.00
23241;BME280;11789;53.482;9.862;2024-02-04T04:08:21;101699.78;;;4.94;100.00
23241;BME280;11789;53.482;9.862;2024-02-04T04:10:47;101701.47;;;4.94;100.00
23241;BME280;11789;53.482;9.862;2024-02-04T04:13:13;101710.72;;;4.90;100.00
23241;BME280;11789;53.482;9.862;2024-02-04T04:15:38;101711.56;;;4.89;100.00
23241;BME280;11789;53.482;9.862;2024-02-04T04:18:04;101699.53;;;4.87;100.00
23241;BME280;11789;53.482;9.862;2024-02-04T04:20:30;101704.56;;;4.85;100.00
23241;BME280;11789;53.482;9.862;2024-02-04T04:22:55;101701.19;;;4.86;100.00
23241;BME280;11789;53.482;9.862;2024-02-04T04:25:21;101688.31;;;4.85;100.00
23241;BME280;11789;53.482;9.862;2024-02-04T04:27:46;101690.78;;;4.82;100.00
23241;BME280;11789;53.482;9.862;2024-02-04T04:30:12;101702.66;;;4.80;100.00
23241;BME280;11789;53.482;9.862;2024-02-04T04:32:37;101697.50;;;4.78;100.00
23241;BME280;11789;53.482;9.862;2024-02-04T04:35:03;101696.62;;;4.78;100.00
23241;BME280;11789;53.482;9.862;2024-02-04T04:37:28;101690.63;;;4.77;100.00
23241;BME280;11789;53.482;9.862;2024-02-04T04:39:54;101701.75;;;4.78;100.00
23241;BME280;11789;53.482;9.862;2024-02-04T04:42:19;101703.47;;;4.79;100.00
23241;BME280;11789;53.482;9.862;2024-02-04T04:44:45;101700.06;;;4.78;100.00
23241;BME280;11789;53.482;9.862;2024-02-04T04:47:10;101702.56;;;4.77;100.00
23241;BME280;11789;53.482;9.862;2024-02-04T04:49:36;101706.00;;;4.77;100.00
23241;BME280;11789;53.482;9.862;2024-02-04T04:52:01;101691.41;;;4.76;100.00
23241;BME280;11789;53.482;9.862;2024-02-04T04:54:29;101684.63;;;4.77;100.00
23241;BME280;11789;53.482;9.862;2024-02-04T04:56:55;101685.44;;;4.76;100.00
23241;BME280;11789;53.482;9.862;2024-02-04T04:59:20;101682.81;;;4.74;100.00
23241;BME280;11789;53.482;9.862;2024-02-04T05:01:47;101676.84;;;4.74;100.00
23241;BME280;11789;53.482;9.862;2024-02-04T05:04:12;101679.34;;;4.72;100.00
23241;BME280;11789;53.482;9.862;2024-02-04T05:06:38;101675.00;;;4.71;100.00
23241;BME280;11789;53.482;9.862;2024-02-04T05:09:03;101676.78;;;4.72;100.00
23241;BME280;11789;53.482;9.862;2024-02-04T05:11:29;101669.81;;;4.68;100.00
23241;BME280;11789;53.482;9.862;2024-02-04T05:13:54;101681.78;;;4.69;100.00
23241;BME280;11789;53.482;9.862;2024-02-04T05:16:20;101679.25;;;4.71;100.00
23241;BME280;11789;53.482;9.862;2024-02-04T05:18:45;101671.53;;;4.69;100.00
23241;BME280;11789;53.482;9.862;2024-02-04T05:21:11;101669.03;;;4.71;100.00
23241;BME280;11789;53.482;9.862;2024-02-04T05:23:37;101667.28;;;4.69;100.00
23241;BME280;11789;53.482;9.862;2024-02-04T05:26:03;101660.44;;;4.68;100.00
23241;BME280;11789;53.482;9.862;2024-02-04T05:28:30;101665.50;;;4.67;100.00
23241;BME280;11789;53.482;9.862;2024-02-04T05:30:55;101657.81;;;4.67;100.00
23241;BME280;11789;53.482;9.862;2024-02-04T05:33:20;101654.47;;;4.69;100.00
23241;BME280;11789;53.482;9.862;2024-02-04T05:35:46;101656.28;;;4.72;100.00
23241;BME280;11789;53.482;9.862;2024-02-04T05:38:11;101663.03;;;4.70;100.00
23241;BME280;11789;53.482;9.862;2024-02-04T05:40:37;101664.78;;;4.71;100.00
23241;BME280;11789;53.482;9.862;2024-02-04T05:43:02;101661.28;;;4.69;100.00
23241;BME280;11789;53.482;9.862;2024-02-04T05:45:33;101650.22;;;4.70;100.00
23241;BME280;11789;53.482;9.862;2024-02-04T05:47:59;101648.53;;;4.71;100.00
23241;BME280;11789;53.482;9.862;2024-02-04T05:50:24;101648.50;;;4.69;100.00
23241;BME280;11789;53.482;9.862;2024-02-04T05:52:49;101647.56;;;4.67;100.00
23241;BME280;11789;53.482;9.862;2024-02-04T05:55:15;101647.56;;;4.67;100.00
23241;BME280;11789;53.482;9.862;2024-02-04T05:57:41;101645.00;;;4.67;100.00
23241;BME280;11789;53.482;9.862;2024-02-04T06:00:09;101638.13;;;4.66;100.00
23241;BME280;11789;53.482;9.862;2024-02-04T06:02:36;101645.81;;;4.66;100.00
23241;BME280;11789;53.482;9.862;2024-02-04T06:05:01;101645.81;;;4.66;100.00
23241;BME280;11789;53.482;9.862;2024-02-04T06:07:27;101642.38;;;4.65;100.00
23241;BME280;11789;53.482;9.862;2024-02-04T06:09:52;101645.88;;;4.67;100.00
23241;BME280;11789;53.482;9.862;2024-02-04T06:12:17;101642.44;;;4.67;100.00
23241;BME280;11789;53.482;9.862;2024-02-04T06:14:43;101642.50;;;4.68;100.00
23241;BME280;11789;53.482;9.862;2024-02-04T06:17:08;101645.00;;;4.67;100.00
23241;BME280;11789;53.482;9.862;2024-02-04T06:19:35;101634.81;;;4.68;100.00
23241;BME280;11789;53.482;9.862;2024-02-04T06:22:00;101635.69;;;4.69;100.00
23241;BME280;11789;53.482;9.862;2024-02-04T06:24:26;101624.53;;;4.67;100.00
23241;BME280;11789;53.482;9.862;2024-02-04T06:26:51;101633.13;;;4.69;100.00
23241;BME280;11789;53.482;9.862;2024-02-04T06:29:17;101625.41;;;4.67;100.00
23241;BME280;11789;53.482;9.862;2024-02-04T06:31:46;101621.97;;;4.67;100.00
23241;BME280;11789;53.482;9.862;2024-02-04T06:34:12;101625.31;;;4.66;100.00
23241;BME280;11789;53.482;9.862;2024-02-04T06:36:38;101622.06;;;4.70;100.00
23241;BME280;11789;53.482;9.862;2024-02-04T06:39:07;101618.66;;;4.71;100.00
23241;BME280;11789;53.482;9.862;2024-02-04T06:41:34;101624.72;;;4.73;100.00
23241;BME280;11789;53.482;9.862;2024-02-04T06:44:00;101608.41;;;4.71;100.00
23241;BME280;11789;53.482;9.862;2024-02-04T06:46:28;101623.78;;;4.71;100.00
23241;BME280;11789;53.482;9.862;2024-02-04T06:48:54;101615.22;;;4.71;100.00
23241;BME280;11789;53.482;9.862;2024-02-04T06:51:20;101622.91;;;4.71;100.00
23241;BME280;11789;53.482;9.862;2024-02-04T06:53:46;101616.09;;;4.71;100.00
23241;BME280;11789;53.482;9.862;2024-02-04T06:56:11;101610.19;;;4.72;100.00
23241;BME280;11789;53.482;9.862;2024-02-04T06:58:38;101616.09;;;4.71;100.00
23241;BME280;11789;53.482;9.862;2024-02-04T07:01:03;101605.84;;;4.71;100.00
23241;BME280;11789;53.482;9.862;2024-02-04T07:03:30;101604.19;;;4.72;100.00
23241;BME280;11789;53.482;9.862;2024-02-04T07:05:57;101599.94;;;4.72;100.00
23241;BME280;11789;53.482;9.862;2024-02-04T07:08:22;101596.50;;;4.72;100.00
23241;BME280;11789;53.482;9.862;2024-02-04T07:10:48;101601.69;;;4.73;100.00
23241;BME280;11789;53.482;9.862;2024-02-04T07:13:13;101585.38;;;4.71;100.00
23241;BME280;11789;53.482;9.862;2024-02-04T07:15:39;101588.84;;;4.72;100.00
23241;BME280;11789;53.482;9.862;2024-02-04T07:18:05;101591.44;;;4.73;100.00
23241;BME280;11789;53.482;9.862;2024-02-04T07:20:30;101599.16;;;4.75;100.00
23241;BME280;11789;53.482;9.862;2024-02-04T07:22:55;101616.25;;;4.76;100.00
23241;BME280;11789;53.482;9.862;2024-02-04T07:25:21;101626.59;;;4.77;100.00
23241;BME280;11789;53.482;9.862;2024-02-04T07:27:48;101622.34;;;4.78;100.00
23241;BME280;11789;53.482;9.862;2024-02-04T07:30:13;101607.84;;;4.78;100.00
23241;BME280;11789;53.482;9.862;2024-02-04T07:32:39;101605.28;;;4.78;100.00
23241;BME280;11789;53.482;9.862;2024-02-04T07:35:04;101608.66;;;4.77;100.00
23241;BME280;11789;53.482;9.862;2024-02-04T07:37:31;101612.13;;;4.79;100.00
23241;BME280;11789;53.482;9.862;2024-02-04T07:39:56;101587.38;;;4.80;100.00
23241;BME280;11789;53.482;9.862;2024-02-04T07:42:22;101589.06;;;4.79;100.00
23241;BME280;11789;53.482;9.862;2024-02-04T07:44:47;101589.28;;;4.85;100.00
23241;BME280;11789;53.482;9.862;2024-02-04T07:47:13;101596.13;;;4.86;100.00
23241;BME280;11789;53.482;9.862;2024-02-04T07:49:38;101588.44;;;4.86;100.00
23241;BME280;11789;53.482;9.862;2024-02-04T07:52:04;101583.41;;;4.88;100.00
23241;BME280;11789;53.482;9.862;2024-02-04T07:54:30;101580.88;;;4.89;100.00
23241;BME280;11789;53.482;9.862;2024-02-04T07:56:56;101594.72;;;4.94;100.00
23241;BME280;11789;53.482;9.862;2024-02-04T07:59:21;101574.22;;;4.94;100.00
23241;BME280;11789;53.482;9.862;2024-02-04T08:01:47;101597.28;;;4.94;100.00
23241;BME280;11789;53.482;9.862;2024-02-04T08:04:12;101582.81;;;4.97;100.00
23241;BME280;11789;53.482;9.862;2024-02-04T08:06:38;101571.78;;;4.98;100.00
23241;BME280;11789;53.482;9.862;2024-02-04T08:09:03;101581.19;;;4.99;100.00
23241;BME280;11789;53.482;9.862;2024-02-04T08:11:29;101582.94;;;5.00;100.00
23241;BME280;11789;53.482;9.862;2024-02-04T08:13:55;101579.63;;;5.02;100.00
23241;BME280;11789;53.482;9.862;2024-02-04T08:16:20;101580.50;;;5.03;100.00
23241;BME280;11789;53.482;9.862;2024-02-04T08:18:46;101577.09;;;5.04;100.00
23241;BME280;11789;53.482;9.862;2024-02-04T08:21:12;101566.03;;;5.05;100.00
23241;BME280;11789;53.482;9.862;2024-02-04T08:23:38;101578.94;;;5.08;100.00
23241;BME280;11789;53.482;9.862;2024-02-04T08:26:05;101573.91;;;5.11;100.00
23241;BME280;11789;53.482;9.862;2024-02-04T08:28:30;101587.69;;;5.14;100.00
23241;BME280;11789;53.482;9.862;2024-02-04T08:30:56;101581.78;;;5.17;100.00
23241;BME280;11789;53.482;9.862;2024-02-04T08:33:21;101587.75;;;5.16;100.00
23241;BME280;11789;53.482;9.862;2024-02-04T08:35:48;101582.63;;;5.16;100.00
23241;BME280;11789;53.482;9.862;2024-02-04T08:38:14;101580.13;;;5.17;100.00
23241;BME280;11789;53.482;9.862;2024-02-04T08:40:39;101569.09;;;5.20;100.00
23241;BME280;11789;53.482;9.862;2024-02-04T08:43:05;101579.44;;;5.23;100.00
23241;BME280;11789;53.482;9.862;2024-02-04T08:45:30;101579.63;;;5.29;100.00
23241;BME280;11789;53.482;9.862;2024-02-04T08:47:56;101590.00;;;5.32;100.00
23241;BME280;11789;53.482;9.862;2024-02-04T08:50:21;101588.34;;;5.34;100.00
23241;BME280;11789;53.482;9.862;2024-02-04T08:52:46;101588.50;;;5.39;100.00
23241;BME280;11789;53.482;9.862;2024-02-04T08:55:12;101591.06;;;5.39;100.00
23241;BME280;11789;53.482;9.862;2024-02-04T08:57:37;101595.41;;;5.41;100.00
23241;BME280;11789;53.482;9.862;2024-02-04T09:00:03;101590.44;;;5.46;100.00
23241;BME280;11789;53.482;9.862;2024-02-04T09:02:29;101576.00;;;5.50;100.00
23241;BME280;11789;53.482;9.862;2024-02-04T09:04:54;101583.72;;;5.50;100.00
23241;BME280;11789;53.482;9.862;2024-02-04T09:07:20;101567.59;;;5.54;100.00
23241;BME280;11789;53.482;9.862;2024-02-04T09:09:45;101559.28;;;5.62;100.00
23241;BME280;11789;53.482;9.862;2024-02-04T09:12:11;101542.16;;;5.61;100.00
23241;BME280;11789;53.482;9.862;2024-02-04T09:14:36;101537.09;;;5.63;100.00
23241;BME280;11789;53.482;9.862;2024-02-04T09:17:03;101554.31;;;5.67;100.00
23241;BME280;11789;53.482;9.862;2024-02-04T09:19:29;101554.31;;;5.67;100.00
23241;BME280;11789;53.482;9.862;2024-02-04T09:21:56;101555.13;;;5.66;100.00
23241;BME280;11789;53.482;9.862;2024-02-04T09:24:22;101559.44;;;5.67;100.00
23241;BME280;11789;53.482;9.862;2024-02-04T09:26:47;101551.81;;;5.68;100.00
23241;BME280;11789;53.482;9.862;2024-02-04T09:29:13;101546.69;;;5.68;100.00
23241;BME280;11789;53.482;9.862;2024-02-04T09:31:38;101557.09;;;5.73;100.00
23241;BME280;11789;53.482;9.862;2024-02-04T09:34:04;101568.22;;;5.73;100.00
23241;BME280;11789;53.482;9.862;2024-02-04T09:36:29;101576.72;;;5.72;100.00
23241;BME280;11789;53.482;9.862;2024-02-04T09:38:55;101574.22;;;5.74;100.00
23241;BME280;11789;53.482;9.862;2024-02-04T09:41:21;101579.41;;;5.77;100.00
23241;BME280;11789;53.482;9.862;2024-02-04T09:43:49;101581.19;;;5.78;100.00
23241;BME280;11789;53.482;9.862;2024-02-04T09:46:16;101584.66;;;5.80;100.00
23241;BME280;11789;53.482;9.862;2024-02-04T09:48:44;101588.19;;;5.84;100.00
23241;BME280;11789;53.482;9.862;2024-02-04T09:51:10;101578.87;;;5.87;100.00
23241;BME280;11789;53.482;9.862;2024-02-04T09:53:36;101570.41;;;5.90;100.00
23241;BME280;11789;53.482;9.862;2024-02-04T09:56:07;101571.25;;;5.90;100.00
23241;BME280;11789;53.482;9.862;2024-02-04T09:58:34;101574.00;;;5.95;100.00
23241;BME280;11789;53.482;9.862;2024-02-04T10:01:00;101566.28;;;5.93;100.00
23241;BME280;11789;53.482;9.862;2024-02-04T10:03:26;101567.06;;;5.92;100.00
23241;BME280;11789;53.482;9.862;2024-02-04T10:05:52;101573.13;;;5.94;100.00
23241;BME280;11789;53.482;9.862;2024-02-04T10:08:17;101568.00;;;5.94;100.00
23241;BME280;11789;53.482;9.862;2024-02-04T10:10:43;101561.12;;;5.93;100.00
23241;BME280;11789;53.482;9.862;2024-02-04T10:13:09;101562.87;;;5.94;100.00
23241;BME280;11789;53.482;9.862;2024-02-04T10:15:35;101553.38;;;5.92;100.00
23241;BME280;11789;53.482;9.862;2024-02-04T10:18:04;101544.91;;;5.94;100.00
23241;BME280;11789;53.482;9.862;2024-02-04T10:20:31;101539.81;;;5.96;100.00
23241;BME280;11789;53.482;9.862;2024-02-04T10:22:56;101543.28;;;5.98;100.00
23241;BME280;11789;53.482;9.862;2024-02-04T10:25:22;101545.91;;;6.00;100.00
23241;BME280;11789;53.482;9.862;2024-02-04T10:27:47;101546.91;;;6.05;100.00
23241;BME280;11789;53.482;9.862;2024-02-04T10:30:14;101534.00;;;6.03;100.00
23241;BME280;11789;53.482;9.862;2024-02-04T10:32:41;101536.69;;;6.06;100.00
23241;BME280;11789;53.482;9.862;2024-02-04T10:35:08;101531.59;;;6.08;100.00
23241;BME280;11789;53.482;9.862;2024-02-04T10:37:34;101532.44;;;6.08;100.00
23241;BME280;11789;53.482;9.862;2024-02-04T10:39:59;101533.28;;;6.07;100.00
23241;BME280;11789;53.482;9.862;2024-02-04T10:42:26;101534.16;;;6.08;100.00
23241;BME280;11789;53.482;9.862;2024-02-04T10:44:57;101536.72;;;6.08;100.00
23241;BME280;11789;53.482;9.862;2024-02-04T10:47:32;101534.22;;;6.09;100.00
23241;BME280;11789;53.482;9.862;2024-02-04T10:49:58;101522.25;;;6.10;100.00
23241;BME280;11789;53.482;9.862;2024-02-04T10:52:27;101519.75;;;6.13;100.00
23241;BME280;11789;53.482;9.862;2024-02-04T10:54:53;101519.84;;;6.16;100.00
23241;BME280;11789;53.482;9.862;2024-02-04T10:57:22;101519.00;;;6.17;100.00
23241;BME280;11789;53.482;9.862;2024-02-04T10:59:56;101513.09;;;6.19;100.00
23241;BME280;11789;53.482;9.862;2024-02-04T11:02:23;101524.31;;;6.23;100.00
23241;BME280;11789;53.482;9.862;2024-02-04T11:04:49;101523.53;;;6.26;100.00
23241;BME280;11789;53.482;9.862;2024-02-04T11:07:17;101523.53;;;6.26;100.00
23241;BME280;11789;53.482;9.862;2024-02-04T11:09:45;101520.12;;;6.27;100.00
23241;BME280;11789;53.482;9.862;2024-02-04T11:12:14;101527.88;;;6.28;100.00
23241;BME280;11789;53.482;9.862;2024-02-04T11:14:44;101517.66;;;6.30;100.00
23241;BME280;11789;53.482;9.862;2024-02-04T11:22:52;101518.66;;;6.35;100.00
23241;BME280;11789;53.482;9.862;2024-02-04T11:27:55;101511.94;;;6.40;100.00
23241;BME280;11789;53.482;9.862;2024-02-04T11:30:23;101507.66;;;6.40;100.00
23241;BME280;11789;53.482;9.862;2024-02-04T11:32:48;101512.00;;;6.43;100.00
23241;BME280;11789;53.482;9.862;2024-02-04T11:35:14;101498.41;;;6.47;100.00
23241;BME280;11789;53.482;9.862;2024-02-04T11:37:40;101504.53;;;6.52;100.00
23241;BME280;11789;53.482;9.862;2024-02-04T11:40:07;101497.84;;;6.59;100.00
23241;BME280;11789;53.482;9.862;2024-02-04T11:42:33;101499.62;;;6.60;100.00
23241;BME280;11789;53.482;9.862;2024-02-04T11:45:12;101506.53;;;6.62;100.00
23241;BME280;11789;53.482;9.862;2024-02-04T11:47:39;101506.62;;;6.67;100.00
23241;BME280;11789;53.482;9.862;2024-02-04T11:50:05;101492.97;;;6.68;100.00
23241;BME280;11789;53.482;9.862;2024-02-04T11:52:32;101486.94;;;6.67;100.00
23241;BME280;11789;53.482;9.862;2024-02-04T11:54:58;101484.41;;;6.69;100.00
23241;BME280;11789;53.482;9.862;2024-02-04T11:57:25;101495.63;;;6.71;100.00
23241;BME280;11789;53.482;9.862;2024-02-04T11:59:52;101492.19;;;6.70;100.00
23241;BME280;11789;53.482;9.862;2024-02-04T12:02:19;101489.72;;;6.75;100.00
23241;BME280;11789;53.482;9.862;2024-02-04T12:04:45;101488.03;;;6.75;100.00
23241;BME280;11789;53.482;9.862;2024-02-04T12:07:13;101482.91;;;6.77;100.00
23241;BME280;11789;53.482;9.862;2024-02-04T12:09:38;101486.50;;;6.84;100.00
23241;BME280;11789;53.482;9.862;2024-02-04T12:12:05;101487.34;;;6.84;100.00
23241;BME280;11789;53.482;9.862;2024-02-04T12:14:30;101481.41;;;6.85;100.00
23241;BME280;11789;53.482;9.862;2024-02-04T12:16:56;101475.44;;;6.86;100.00
23241;BME280;11789;53.482;9.862;2024-02-04T12:19:23;101479.75;;;6.89;100.00
23241;BME280;11789;53.482;9.862;2024-02-04T12:21:48;101480.63;;;6.89;100.00
23241;BME280;11789;53.482;9.862;2024-02-04T12:24:14;101478.97;;;6.90;100.00
23241;BME280;11789;53.482;9.862;2024-02-04T12:26:40;101476.44;;;6.93;100.00
23241;BME280;11789;53.482;9.862;2024-02-04T12:29:06;101472.16;;;6.93;100.00
23241;BME280;11789;53.482;9.862;2024-02-04T12:31:32;101479.09;;;6.96;100.00
23241;BME280;11789;53.482;9.862;2024-02-04T12:34:01;101477.41;;;6.96;100.00
23241;BME280;11789;53.482;9.862;2024-02-04T12:36:30;101470.53;;;6.97;100.00
23241;BME280;11789;53.482;9.862;2024-02-04T12:39:00;101466.25;;;6.96;100.00
23241;BME280;11789;53.482;9.862;2024-02-04T12:41:27;101485.06;;;6.95;100.00
23241;BME280;11789;53.482;9.862;2024-02-04T12:43:57;101473.09;;;6.95;100.00
23241;BME280;11789;53.482;9.862;2024-02-04T12:46:23;101474.75;;;6.93;100.00
23241;BME280;11789;53.482;9.862;2024-02-04T12:48:53;101475.56;;;6.92;100.00
23241;BME280;11789;53.482;9.862;2024-02-04T12:51:26;101461.88;;;6.93;100.00
23241;BME280;11789;53.482;9.862;2024-02-04T12:54:05;101467.87;;;6.92;100.00
23241;BME280;11789;53.482;9.862;2024-02-04T12:59:06;101467.09;;;6.95;100.00
23241;BME280;11789;53.482;9.862;2024-02-04T13:01:32;101467.97;;;6.97;100.00